Time;durP1;ratioP1;P1;durP2;ratioP2;P2;SDS_P1;SDS_P2;PMS_P1;PMS_P2;Temp;Humidity;BMP_temperature;BMP_pressure;BME280_temperature;BME280_humidity;BME280_pressure;Samples;Min_cycle;Max_cycle;Signal;HPM_P1;HPM_P2
2022/09/04 00:00:10;;;;;;;7.38;1.92;;;;;;;;;;4994402;28;20509;-71
2022/09/04 00:02:57;;;;;;;6.57;2.10;;;;;;;;;;4993628;28;20078;-71
2022/09/04 00:05:23;;;;;;;4.53;1.80;;;;;;;;;;4992513;28;20499;-71
2022/09/04 00:07:49;;;;;;;6.93;2.00;;;;;;;;;;4994666;28;20034;-71
2022/09/04 00:10:21;;;;;;;6.80;2.25;;;;;;;;;;4994927;28;20042;-72
2022/09/04 00:12:47;;;;;;;5.95;1.83;;;;;;;;;;4992632;28;20057;-71
2022/09/04 00:15:18;;;;;;;6.95;2.00;;;;;;;;;;4964277;28;20051;-72
2022/09/04 00:17:54;;;;;;;5.00;2.10;;;;;;;;;;4990292;28;20046;-71
2022/09/04 00:20:30;;;;;;;7.97;2.13;;;;;;;;;;4993866;28;20057;-71
2022/09/04 00:23:08;;;;;;;6.30;2.05;;;;;;;;;;4990732;28;20109;-72
2022/09/04 00:25:38;;;;;;;6.80;2.00;;;;;;;;;;4987504;28;20045;-71
2022/09/04 00:28:08;;;;;;;6.15;2.22;;;;;;;;;;4992554;28;20035;-71
2022/09/04 00:30:37;;;;;;;5.53;2.40;;;;;;;;;;4995969;28;20042;-71
2022/09/04 00:33:21;;;;;;;7.65;2.05;;;;;;;;;;4995620;28;20141;-71
2022/09/04 00:35:50;;;;;;;6.32;1.98;;;;;;;;;;4985705;28;20058;-71
2022/09/04 00:38:22;;;;;;;4.95;1.95;;;;;;;;;;5004966;28;20129;-72
2022/09/04 00:41:03;;;;;;;7.00;1.95;;;;;;;;;;4995859;28;20043;-72
2022/09/04 00:43:29;;;;;;;;;;;;;;;;;;4995590;28;20069;-72
2022/09/04 00:46:01;;;;;;;7.70;2.20;;;;;;;;;;4995591;28;19973;-72
2022/09/04 00:48:34;;;;;;;5.57;1.83;;;;;;;;;;4995515;28;20409;-71
2022/09/04 00:51:13;;;;;;;6.97;2.13;;;;;;;;;;4995368;28;20081;-72
2022/09/04 00:53:42;;;;;;;6.00;1.98;;;;;;;;;;5007412;28;20045;-71
2022/09/04 00:56:27;;;;;;;5.97;2.17;;;;;;;;;;5008607;28;20046;-71
2022/09/04 00:58:56;;;;;;;9.30;2.53;;;;;;;;;;4992185;28;20042;-71
2022/09/04 01:01:23;;;;;;;7.82;2.30;;;;;;;;;;4994466;28;20051;-71
2022/09/04 01:04:00;;;;;;;10.52;2.53;;;;;;;;;;4991523;28;20401;-72
2022/09/04 01:07:02;;;;;;;5.03;2.10;;;;;;;;;;4975639;28;20039;-71
2022/09/04 01:09:43;;;;;;;6.53;2.10;;;;;;;;;;4878463;29;20048;-72
2022/09/04 01:12:24;;;;;;;12.05;2.33;;;;;;;;;;4895429;29;20056;-72
2022/09/04 01:14:55;;;;;;;6.18;2.50;;;;;;;;;;4890751;29;20049;-71
2022/09/04 01:17:28;;;;;;;6.30;2.25;;;;;;;;;;4896056;29;20289;-72
2022/09/04 01:19:54;;;;;;;9.80;2.20;;;;;;;;;;4896146;29;20594;-72
2022/09/04 01:22:40;;;;;;;5.75;2.10;;;;;;;;;;4869521;29;20047;-72
2022/09/04 01:25:08;;;;;;;6.93;2.28;;;;;;;;;;4893991;29;20131;-72
2022/09/04 01:27:50;;;;;;;6.20;2.30;;;;;;;;;;4891662;29;20041;-72
2022/09/04 01:30:16;;;;;;;;;;;;;;;;;;4881017;29;20093;-72
2022/09/04 01:32:57;;;;;;;8.02;2.30;;;;;;;;;;4891213;29;20015;-72
2022/09/04 01:35:25;;;;;;;6.80;2.20;;;;;;;;;;4890709;29;20048;-72
2022/09/04 01:37:57;;;;;;;8.23;2.35;;;;;;;;;;4862156;29;21472;-72
2022/09/04 01:40:26;;;;;;;6.05;2.17;;;;;;;;;;4894872;29;20044;-72
2022/09/04 01:43:11;;;;;;;6.85;2.20;;;;;;;;;;4899324;28;20078;-72
2022/09/04 01:45:41;;;;;;;10.18;2.67;;;;;;;;;;5007586;28;20070;-72
2022/09/04 01:48:09;;;;;;;7.00;2.78;;;;;;;;;;4991856;28;20054;-72
2022/09/04 01:50:37;;;;;;;5.97;2.33;;;;;;;;;;4993466;28;20050;-72
2022/09/04 01:53:11;;;;;;;9.75;2.83;;;;;;;;;;4976313;28;20444;-72
2022/09/04 01:55:49;;;;;;;6.20;2.60;;;;;;;;;;4993259;28;20070;-72
2022/09/04 01:58:18;;;;;;;7.75;2.42;;;;;;;;;;4992151;28;20566;-72
2022/09/04 02:00:47;;;;;;;7.25;2.50;;;;;;;;;;4992644;28;20571;-72
2022/09/04 02:03:21;;;;;;;6.05;2.45;;;;;;;;;;4989746;28;20042;-72
2022/09/04 02:06:00;;;;;;;8.57;2.85;;;;;;;;;;4959216;28;20053;-72
2022/09/04 02:08:44;;;;;;;5.47;2.40;;;;;;;;;;4984143;28;20425;-72
2022/09/04 02:11:22;;;;;;;8.52;2.88;;;;;;;;;;4994205;28;20081;-72
2022/09/04 02:13:52;;;;;;;10.00;2.58;;;;;;;;;;4990501;28;20042;-72
2022/09/04 02:16:39;;;;;;;6.72;2.78;;;;;;;;;;4993352;28;20042;-72
2022/09/04 02:19:11;;;;;;;6.93;2.63;;;;;;;;;;4990978;28;20053;-72
2022/09/04 02:21:43;;;;;;;6.32;2.58;;;;;;;;;;4991855;28;20046;-71
2022/09/04 02:24:22;;;;;;;5.68;2.47;;;;;;;;;;4947796;28;20054;-72
2022/09/04 02:27:05;;;;;;;5.47;2.20;;;;;;;;;;4992377;28;20047;-72
2022/09/04 02:29:38;;;;;;;6.70;2.67;;;;;;;;;;4987377;28;20062;-72
2022/09/04 02:32:10;;;;;;;6.63;2.63;;;;;;;;;;4989681;28;20042;-72
2022/09/04 02:35:02;;;;;;;9.30;2.80;;;;;;;;;;4975811;28;20050;-71
2022/09/04 02:37:37;;;;;;;7.50;2.78;;;;;;;;;;4987844;28;20070;-71
2022/09/04 02:40:06;;;;;;;5.95;2.70;;;;;;;;;;4990141;28;20057;-72
2022/09/04 02:42:44;;;;;;;8.25;2.70;;;;;;;;;;4991628;28;20097;-72
2022/09/04 02:45:19;;;;;;;7.40;2.72;;;;;;;;;;4992951;28;20073;-72
2022/09/04 02:47:54;;;;;;;8.25;2.60;;;;;;;;;;4991607;28;20039;-72
2022/09/04 02:50:23;;;;;;;6.47;2.90;;;;;;;;;;4974963;28;20093;-72
2022/09/04 02:53:08;;;;;;;5.05;2.67;;;;;;;;;;4995010;28;20057;-72
2022/09/04 02:55:53;;;;;;;6.82;2.58;;;;;;;;;;4992846;28;20043;-72
2022/09/04 02:58:38;;;;;;;9.85;2.90;;;;;;;;;;4991223;28;20039;-72
2022/09/04 03:01:21;;;;;;;4.82;2.67;;;;;;;;;;4992617;28;20383;-72
2022/09/04 03:03:59;;;;;;;8.95;2.85;;;;;;;;;;4991255;28;20082;-71
2022/09/04 03:06:43;;;;;;;5.68;2.67;;;;;;;;;;4993119;28;20038;-72
2022/09/04 03:09:12;;;;;;;8.88;2.65;;;;;;;;;;4977104;28;20046;-72
2022/09/04 03:11:41;;;;;;;6.95;2.75;;;;;;;;;;4993400;28;20088;-71
2022/09/04 03:14:11;;;;;;;7.85;2.88;;;;;;;;;;4986563;28;20038;-71
2022/09/04 03:16:49;;;;;;;8.75;3.00;;;;;;;;;;4991941;28;20493;-71
2022/09/04 03:19:18;;;;;;;8.98;3.00;;;;;;;;;;4990968;28;20138;-71
2022/09/04 03:22:05;;;;;;;8.93;2.83;;;;;;;;;;4991450;28;20378;-71
2022/09/04 03:24:49;;;;;;;9.45;3.03;;;;;;;;;;4957637;28;20050;-72
2022/09/04 03:27:17;;;;;;;6.82;2.72;;;;;;;;;;4989846;28;20445;-72
2022/09/04 03:29:46;;;;;;;6.93;2.88;;;;;;;;;;4971467;28;20050;-71
2022/09/04 03:32:31;;;;;;;7.25;2.88;;;;;;;;;;4991927;28;20482;-71
2022/09/04 03:35:06;;;;;;;7.18;2.75;;;;;;;;;;4991756;28;20428;-71
2022/09/04 03:37:39;;;;;;;5.70;2.83;;;;;;;;;;4990885;28;20374;-71
2022/09/04 03:40:11;;;;;;;5.68;2.70;;;;;;;;;;4990828;28;20053;-72
2022/09/04 03:42:56;;;;;;;8.60;2.58;;;;;;;;;;4991698;28;20089;-71
2022/09/04 03:45:34;;;;;;;7.40;3.05;;;;;;;;;;4983939;28;20038;-72
2022/09/04 03:48:16;;;;;;;7.82;2.88;;;;;;;;;;4991045;28;20380;-71
2022/09/04 03:50:53;;;;;;;9.35;3.05;;;;;;;;;;4992468;28;20158;-72
2022/09/04 03:53:30;;;;;;;8.10;2.88;;;;;;;;;;4991451;28;20046;-71
2022/09/04 03:56:08;;;;;;;7.95;3.40;;;;;;;;;;4970241;28;20050;-71
2022/09/04 03:58:36;;;;;;;8.23;3.13;;;;;;;;;;4990280;28;20046;-72
2022/09/04 04:01:11;;;;;;;7.47;2.90;;;;;;;;;;4978592;28;20387;-72
2022/09/04 04:03:53;;;;;;;7.47;3.10;;;;;;;;;;4993611;28;20511;-72
2022/09/04 04:06:45;;;;;;;6.75;3.00;;;;;;;;;;4994120;28;20097;-71
2022/09/04 04:09:30;;;;;;;8.02;3.20;;;;;;;;;;4990194;28;20057;-72
2022/09/04 04:12:09;;;;;;;7.53;3.05;;;;;;;;;;4994621;28;20045;-72
2022/09/04 04:14:41;;;;;;;8.75;3.10;;;;;;;;;;4996311;28;20073;-71
2022/09/04 04:17:10;;;;;;;7.55;3.10;;;;;;;;;;4993366;28;20041;-73
2022/09/04 04:19:39;;;;;;;6.43;3.17;;;;;;;;;;4990659;28;20045;-73
2022/09/04 04:22:24;;;;;;;6.80;3.38;;;;;;;;;;4967380;28;20054;-71
2022/09/04 04:24:50;;;;;;;7.85;3.40;;;;;;;;;;4992024;28;20125;-72
2022/09/04 04:27:34;;;;;;;5.68;2.90;;;;;;;;;;4993187;28;20042;-72
2022/09/04 04:30:08;;;;;;;9.90;3.20;;;;;;;;;;4992790;28;20058;-72
2022/09/04 04:32:37;;;;;;;10.40;3.20;;;;;;;;;;4993956;28;20058;-71
2022/09/04 04:35:10;;;;;;;6.93;3.17;;;;;;;;;;4977000;28;20054;-72
2022/09/04 04:37:54;;;;;;;8.02;2.95;;;;;;;;;;4989204;28;20045;-72
2022/09/04 04:40:40;;;;;;;6.30;2.83;;;;;;;;;;4992198;28;20039;-72
2022/09/04 04:43:24;;;;;;;7.50;3.20;;;;;;;;;;4985577;28;20069;-72
2022/09/04 04:45:56;;;;;;;7.70;3.10;;;;;;;;;;4991452;28;20046;-72
2022/09/04 04:48:33;;;;;;;8.38;3.70;;;;;;;;;;4992707;28;20038;-72
2022/09/04 04:51:04;;;;;;;5.93;3.17;;;;;;;;;;4987922;28;20042;-72
2022/09/04 04:53:42;;;;;;;7.57;3.00;;;;;;;;;;4993386;28;20046;-72
2022/09/04 04:56:14;;;;;;;7.18;3.13;;;;;;;;;;4991107;28;20051;-72
2022/09/04 04:58:43;;;;;;;6.93;3.03;;;;;;;;;;4976441;28;20054;-72
2022/09/04 05:01:14;;;;;;;8.35;3.22;;;;;;;;;;4993941;28;20108;-72
2022/09/04 05:03:42;;;;;;;7.28;3.10;;;;;;;;;;4993521;28;20057;-72
2022/09/04 05:06:08;;;;;;;5.75;2.85;;;;;;;;;;4991648;28;20408;-71
2022/09/04 05:08:52;;;;;;;7.68;3.03;;;;;;;;;;4998854;28;20042;-72
2022/09/04 05:11:34;;;;;;;7.95;3.17;;;;;;;;;;4992614;28;20105;-72
2022/09/04 05:14:19;;;;;;;7.57;3.13;;;;;;;;;;4993506;28;20062;-72
2022/09/04 05:16:52;;;;;;;6.65;2.90;;;;;;;;;;4993287;28;20069;-72
2022/09/04 05:19:24;;;;;;;6.57;3.00;;;;;;;;;;4975120;28;20054;-72
2022/09/04 05:22:04;;;;;;;13.23;3.17;;;;;;;;;;4971656;28;20057;-72
2022/09/04 05:24:36;;;;;;;5.53;2.70;;;;;;;;;;4959800;28;20050;-73
2022/09/04 05:27:21;;;;;;;9.30;3.20;;;;;;;;;;4991755;28;20557;-71
2022/09/04 05:29:50;;;;;;;7.55;2.90;;;;;;;;;;4993372;28;20386;-72
2022/09/04 05:32:22;;;;;;;12.15;3.25;;;;;;;;;;4961409;28;20105;-72
2022/09/04 05:34:57;;;;;;;7.07;2.80;;;;;;;;;;4993155;28;20054;-72
2022/09/04 05:37:37;;;;;;;7.00;2.90;;;;;;;;;;4971722;28;20046;-73
2022/09/04 05:40:11;;;;;;;7.40;2.92;;;;;;;;;;4988533;28;20112;-72
2022/09/04 05:42:44;;;;;;;9.63;3.00;;;;;;;;;;4991493;28;20100;-72
2022/09/04 05:45:19;;;;;;;6.70;2.92;;;;;;;;;;4990487;28;20125;-71
2022/09/04 05:48:03;;;;;;;8.13;2.83;;;;;;;;;;4992249;28;20117;-72
2022/09/04 05:50:32;;;;;;;6.65;3.00;;;;;;;;;;4992797;28;20397;-72
2022/09/04 05:53:01;;;;;;;8.30;2.90;;;;;;;;;;4993704;28;20108;-72
2022/09/04 05:55:30;;;;;;;7.30;3.10;;;;;;;;;;4992905;28;20184;-72
2022/09/04 05:58:11;;;;;;;6.00;3.13;;;;;;;;;;4992120;28;20085;-71
2022/09/04 06:00:49;;;;;;;6.55;3.30;;;;;;;;;;4992833;28;20188;-71
2022/09/04 06:03:18;;;;;;;8.07;3.05;;;;;;;;;;4990816;28;20046;-72
2022/09/04 06:06:03;;;;;;;7.65;3.13;;;;;;;;;;4990049;28;20178;-71
2022/09/04 06:08:41;;;;;;;6.63;3.10;;;;;;;;;;4993441;28;20165;-72
2022/09/04 06:11:30;;;;;;;7.00;2.90;;;;;;;;;;4991575;28;20053;-72
2022/09/04 06:14:02;;;;;;;6.50;2.80;;;;;;;;;;4973904;28;20046;-72
2022/09/04 06:16:37;;;;;;;9.63;3.20;;;;;;;;;;4981847;28;20077;-72
2022/09/04 06:19:03;;;;;;;7.32;2.95;;;;;;;;;;4991650;28;20460;-71
2022/09/04 06:21:36;;;;;;;7.50;3.10;;;;;;;;;;4986465;28;20047;-71
2022/09/04 06:24:17;;;;;;;9.77;3.20;;;;;;;;;;4989814;28;20051;-71
2022/09/04 06:27:02;;;;;;;10.65;2.70;;;;;;;;;;4989677;28;20042;-71
2022/09/04 06:29:37;;;;;;;5.25;2.63;;;;;;;;;;4972942;28;20092;-70
2022/09/04 06:32:20;;;;;;;10.48;2.88;;;;;;;;;;4987631;28;21822;-71
2022/09/04 06:34:57;;;;;;;8.88;3.22;;;;;;;;;;4987649;28;20058;-71
2022/09/04 06:37:29;;;;;;;13.10;3.00;;;;;;;;;;4992121;28;20053;-71
2022/09/04 06:40:13;;;;;;;9.93;2.80;;;;;;;;;;4992883;28;20125;-71
2022/09/04 06:42:48;;;;;;;8.35;3.03;;;;;;;;;;4959525;28;20054;-71
2022/09/04 06:45:38;;;;;;;6.40;2.75;;;;;;;;;;4990788;28;20058;-71
2022/09/04 06:48:04;;;;;;;7.05;3.10;;;;;;;;;;4990318;28;20053;-71
2022/09/04 06:50:34;;;;;;;9.25;2.97;;;;;;;;;;4992349;28;20050;-71
2022/09/04 06:53:41;;;;;;;7.30;2.88;;;;;;;;;;4987233;28;20074;-71
2022/09/04 06:56:24;;;;;;;7.57;2.75;;;;;;;;;;4951497;29;20059;-71
2022/09/04 06:59:05;;;;;;;6.43;2.30;;;;;;;;;;4951282;29;20118;-71
2022/09/04 07:01:32;;;;;;;;;;;;;;;;;;4951596;29;20491;-72
2022/09/04 07:04:07;;;;;;;7.28;2.65;;;;;;;;;;4948185;29;20404;-70
2022/09/04 07:06:47;;;;;;;5.40;2.60;;;;;;;;;;4944325;28;20035;-71
2022/09/04 07:09:22;;;;;;;6.35;2.60;;;;;;;;;;4950313;28;20039;-72
2022/09/04 07:12:16;;;;;;;6.70;2.80;;;;;;;;;;4936412;29;20051;-70
2022/09/04 07:15:01;;;;;;;6.07;2.35;;;;;;;;;;4942613;29;20059;-72
2022/09/04 07:17:29;;;;;;;6.80;2.70;;;;;;;;;;4944553;29;20550;-72
2022/09/04 07:20:04;;;;;;;6.85;2.90;;;;;;;;;;4945855;28;20055;-70
2022/09/04 07:23:05;;;;;;;7.03;2.80;;;;;;;;;;4947791;29;20411;-70
2022/09/04 07:25:31;;;;;;;;;;;;;;;;;;4930549;29;20121;-72
2022/09/04 07:28:11;;;;;;;7.50;2.65;;;;;;;;;;4940743;29;19965;-70
2022/09/04 07:30:46;;;;;;;7.22;2.55;;;;;;;;;;4925116;29;20178;-71
2022/09/04 07:33:18;;;;;;;6.53;2.58;;;;;;;;;;4948660;28;20051;-70
2022/09/04 07:35:50;;;;;;;7.32;2.60;;;;;;;;;;4931036;29;20054;-71
2022/09/04 07:38:34;;;;;;;5.82;2.60;;;;;;;;;;4950886;29;20445;-70
2022/09/04 07:41:18;;;;;;;8.77;2.95;;;;;;;;;;4955961;28;20505;-70
2022/09/04 07:44:02;;;;;;;7.07;2.70;;;;;;;;;;4959842;28;20086;-71
2022/09/04 07:46:33;;;;;;;7.35;2.70;;;;;;;;;;4937426;29;20578;-70
2022/09/04 07:49:10;;;;;;;7.15;2.20;;;;;;;;;;4933175;29;20055;-70
2022/09/04 07:51:42;;;;;;;7.75;2.30;;;;;;;;;;4949676;29;20043;-70
2022/09/04 07:54:24;;;;;;;6.57;2.10;;;;;;;;;;4951592;29;20055;-70
2022/09/04 07:56:53;;;;;;;7.32;2.63;;;;;;;;;;4953015;29;20055;-70
2022/09/04 07:59:36;;;;;;;8.05;3.10;;;;;;;;;;4971116;28;20137;-70
2022/09/04 08:02:15;;;;;;;11.10;2.30;;;;;;;;;;4990678;28;20085;-70
2022/09/04 08:04:57;;;;;;;7.45;3.05;;;;;;;;;;4976043;28;20454;-71
2022/09/04 08:07:32;;;;;;;8.00;2.50;;;;;;;;;;4985946;28;20038;-71
2022/09/04 08:10:17;;;;;;;6.47;2.20;;;;;;;;;;4995039;28;20089;-70
2022/09/04 08:12:55;;;;;;;6.72;2.45;;;;;;;;;;4994135;28;20421;-70
2022/09/04 08:15:29;;;;;;;6.60;2.40;;;;;;;;;;4995202;28;20128;-71
2022/09/04 08:18:05;;;;;;;6.22;2.40;;;;;;;;;;4991888;28;20058;-70
2022/09/04 08:20:49;;;;;;;8.25;2.60;;;;;;;;;;4992819;28;20398;-70
2022/09/04 08:23:27;;;;;;;5.60;2.50;;;;;;;;;;4990671;28;20493;-70
2022/09/04 08:25:53;;;;;;;6.47;2.60;;;;;;;;;;4991540;28;20512;-69
2022/09/04 08:28:20;;;;;;;6.45;2.50;;;;;;;;;;4993067;28;20034;-70
2022/09/04 08:30:53;;;;;;;7.43;2.38;;;;;;;;;;4988296;28;20062;-71
2022/09/04 08:33:36;;;;;;;4.90;2.28;;;;;;;;;;4973206;28;20054;-70
2022/09/04 08:36:04;;;;;;;6.72;2.55;;;;;;;;;;4989116;28;20050;-69
2022/09/04 08:38:36;;;;;;;9.70;2.30;;;;;;;;;;4983509;28;20450;-70
2022/09/04 08:41:14;;;;;;;6.10;2.60;;;;;;;;;;4990584;28;20046;-70
2022/09/04 08:43:46;;;;;;;7.65;2.58;;;;;;;;;;4960003;28;20401;-70
2022/09/04 08:46:31;;;;;;;11.73;2.15;;;;;;;;;;4994071;28;20053;-70
2022/09/04 08:49:16;;;;;;;5.65;2.20;;;;;;;;;;4990568;28;20103;-70
2022/09/04 08:51:57;;;;;;;6.30;2.00;;;;;;;;;;4974254;28;20054;-70
2022/09/04 08:54:29;;;;;;;6.50;2.38;;;;;;;;;;4992929;28;20042;-70
2022/09/04 08:57:09;;;;;;;7.90;2.55;;;;;;;;;;4994192;28;20132;-70
2022/09/04 08:59:51;;;;;;;6.60;2.30;;;;;;;;;;4990419;28;20204;-70
2022/09/04 09:02:30;;;;;;;4.80;2.40;;;;;;;;;;4970676;28;20045;-70
2022/09/04 09:05:17;;;;;;;8.23;2.33;;;;;;;;;;4988232;28;20047;-71
2022/09/04 09:08:01;;;;;;;9.45;2.22;;;;;;;;;;4991463;28;20046;-69
2022/09/04 09:10:42;;;;;;;10.15;1.92;;;;;;;;;;4990972;28;20130;-69
2022/09/04 09:13:26;;;;;;;6.20;2.05;;;;;;;;;;4985427;28;20085;-70
2022/09/04 09:16:11;;;;;;;10.48;2.20;;;;;;;;;;4988351;28;20450;-69
2022/09/04 09:18:40;;;;;;;5.80;2.10;;;;;;;;;;4990037;28;20121;-70
2022/09/04 09:21:12;;;;;;;5.68;2.03;;;;;;;;;;4992579;28;20497;-70
2022/09/04 09:23:40;;;;;;;8.95;2.38;;;;;;;;;;4954515;28;20584;-70
2022/09/04 09:26:12;;;;;;;6.93;2.00;;;;;;;;;;4989282;28;20062;-70
2022/09/04 09:28:44;;;;;;;6.63;2.22;;;;;;;;;;4993220;28;20085;-70
2022/09/04 09:31:26;;;;;;;5.38;2.03;;;;;;;;;;4993606;28;20050;-70
2022/09/04 09:34:22;;;;;;;6.22;2.00;;;;;;;;;;4989631;28;20073;-70
2022/09/04 09:37:01;;;;;;;6.38;1.85;;;;;;;;;;4985450;28;20076;-70
2022/09/04 09:39:46;;;;;;;5.60;1.92;;;;;;;;;;4956917;28;20085;-70
2022/09/04 09:42:29;;;;;;;4.22;1.90;;;;;;;;;;4991836;28;20042;-70
2022/09/04 09:44:58;;;;;;;5.15;1.75;;;;;;;;;;4990010;28;20046;-70
2022/09/04 09:47:37;;;;;;;4.90;2.13;;;;;;;;;;4989299;28;20065;-71
2022/09/04 09:50:19;;;;;;;5.60;2.15;;;;;;;;;;4982935;28;20045;-70
2022/09/04 09:53:00;;;;;;;6.53;1.90;;;;;;;;;;4991681;28;20058;-70
2022/09/04 09:55:26;;;;;;;;;;;;;;;;;;4978109;28;20066;-70
2022/09/04 09:58:11;;;;;;;11.30;2.00;;;;;;;;;;4993129;28;19921;-70
2022/09/04 10:01:03;;;;;;;6.88;1.88;;;;;;;;;;4992311;28;20070;-71
2022/09/04 10:03:38;;;;;;;8.55;2.17;;;;;;;;;;4990363;28;20050;-70
2022/09/04 10:06:17;;;;;;;6.70;2.10;;;;;;;;;;4979119;28;20050;-71
2022/09/04 10:09:01;;;;;;;6.38;1.80;;;;;;;;;;4990503;28;20054;-69
2022/09/04 10:11:35;;;;;;;6.80;1.98;;;;;;;;;;4992516;28;20046;-70
2022/09/04 10:14:04;;;;;;;4.25;1.45;;;;;;;;;;4989169;28;20391;-70
2022/09/04 10:19:26;;;;;;;7.75;2.22;;;;;;;;;;4940773;28;20106;-84
2022/09/04 10:22:08;;;;;;;7.28;2.00;;;;;;;;;;4916549;29;20047;-83
2022/09/04 10:24:34;;;;;;;7.90;1.77;;;;;;;;;;4936405;29;20052;-85
2022/09/04 10:27:19;;;;;;;4.50;1.70;;;;;;;;;;4952684;29;20109;-84
2022/09/04 10:29:53;;;;;;;5.93;1.83;;;;;;;;;;4956968;28;20486;-85
2022/09/04 10:32:23;;;;;;;5.65;1.85;;;;;;;;;;4937106;29;20102;-85
2022/09/04 10:34:53;;;;;;;4.85;1.55;;;;;;;;;;4954301;29;20102;-84
2022/09/04 10:37:37;;;;;;;5.10;1.88;;;;;;;;;;4954903;29;20054;-85
2022/09/04 10:40:34;;;;;;;5.30;1.83;;;;;;;;;;4954579;29;20047;-84
2022/09/04 10:43:00;;;;;;;8.88;1.73;;;;;;;;;;4952955;29;20051;-84
2022/09/04 10:45:32;;;;;;;13.10;2.15;;;;;;;;;;4955287;29;20047;-84
2022/09/04 10:48:13;;;;;;;4.85;1.60;;;;;;;;;;4939544;29;20058;-83
2022/09/04 10:51:00;;;;;;;5.25;1.48;;;;;;;;;;4953442;29;20047;-83
2022/09/04 10:53:53;;;;;;;3.88;1.52;;;;;;;;;;4952813;29;20039;-83
2022/09/04 10:56:20;;;;;;;4.38;1.58;;;;;;;;;;4928700;29;20059;-83
2022/09/04 10:59:03;;;;;;;7.00;1.90;;;;;;;;;;4954663;28;20078;-83
2022/09/04 11:01:50;;;;;;;5.13;1.58;;;;;;;;;;4964460;28;20062;-84
2022/09/04 11:04:25;;;;;;;5.53;1.67;;;;;;;;;;4952827;29;20058;-84
2022/09/04 11:07:15;;;;;;;8.82;1.80;;;;;;;;;;4953027;29;20048;-84
2022/09/04 11:10:07;;;;;;;5.63;1.67;;;;;;;;;;4937424;29;20150;-84
2022/09/04 11:12:33;;;;;;;8.75;2.00;;;;;;;;;;4956370;29;20043;-82
2022/09/04 11:15:09;;;;;;;6.68;1.80;;;;;;;;;;4940905;29;20098;-84
2022/09/04 11:17:38;;;;;;;5.13;1.60;;;;;;;;;;4958626;29;20055;-83
2022/09/04 11:20:24;;;;;;;5.55;1.58;;;;;;;;;;4955309;29;20054;-83
2022/09/04 11:23:06;;;;;;;4.60;1.52;;;;;;;;;;4959388;28;20372;-83
2022/09/04 11:25:37;;;;;;;4.85;1.65;;;;;;;;;;4950394;28;20105;-80
2022/09/04 11:28:03;;;;;;;4.55;1.50;;;;;;;;;;4970099;28;20043;-82
2022/09/04 11:30:42;;;;;;;4.00;1.42;;;;;;;;;;4969512;28;20043;-83
2022/09/04 11:33:08;;;;;;;9.10;1.70;;;;;;;;;;4948337;28;20051;-82
2022/09/04 11:35:53;;;;;;;3.72;1.50;;;;;;;;;;4949227;28;20043;-83
2022/09/04 11:38:23;;;;;;;4.30;1.48;;;;;;;;;;4967216;28;20050;-82
2022/09/04 11:41:16;;;;;;;4.53;1.50;;;;;;;;;;4961837;28;20098;-83
2022/09/04 11:43:42;;;;;;;3.63;1.70;;;;;;;;;;4963180;28;20089;-82
2022/09/04 11:46:28;;;;;;;5.85;1.85;;;;;;;;;;4969034;28;20067;-82
2022/09/04 11:49:08;;;;;;;4.90;1.67;;;;;;;;;;4950808;28;20581;-82
2022/09/04 11:51:52;;;;;;;6.03;1.70;;;;;;;;;;4946054;28;20058;-82
2022/09/04 11:54:39;;;;;;;6.55;1.80;;;;;;;;;;4944539;28;20043;-83
2022/09/04 11:57:29;;;;;;;4.43;1.60;;;;;;;;;;4946375;28;20039;-82
2022/09/04 12:00:08;;;;;;;3.72;1.67;;;;;;;;;;4968644;28;20043;-83
2022/09/04 12:02:43;;;;;;;5.10;1.75;;;;;;;;;;4964287;28;20050;-83
2022/09/04 12:05:41;;;;;;;4.05;1.70;;;;;;;;;;4964480;28;20039;-84
2022/09/04 12:08:26;;;;;;;6.57;1.88;;;;;;;;;;4965495;28;20075;-83
2022/09/04 12:11:05;;;;;;;5.13;1.70;;;;;;;;;;4952744;28;20046;-84
2022/09/04 12:13:51;;;;;;;3.88;1.88;;;;;;;;;;4963569;28;20390;-83
2022/09/04 12:16:41;;;;;;;5.47;1.60;;;;;;;;;;4944828;28;20090;-84
2022/09/04 12:19:07;;;;;;;5.43;1.90;;;;;;;;;;4961421;28;20059;-83
2022/09/04 12:21:52;;;;;;;7.30;1.98;;;;;;;;;;4932608;28;20093;-84
2022/09/04 12:24:28;;;;;;;5.38;1.45;;;;;;;;;;4958718;28;20098;-84
2022/09/04 12:27:15;;;;;;;5.40;1.67;;;;;;;;;;4961137;28;20426;-84
2022/09/04 12:30:00;;;;;;;5.95;1.75;;;;;;;;;;4962006;28;20055;-82
2022/09/04 12:32:41;;;;;;;7.60;1.90;;;;;;;;;;4956962;28;20054;-83
2022/09/04 12:35:07;;;;;;;18.75;2.35;;;;;;;;;;4958929;28;20046;-83
2022/09/04 12:37:43;;;;;;;8.73;1.90;;;;;;;;;;4959905;28;20054;-83
2022/09/04 12:40:28;;;;;;;5.97;2.08;;;;;;;;;;4958857;28;20059;-84
2022/09/04 12:42:56;;;;;;;4.63;1.80;;;;;;;;;;4961431;28;20050;-83
2022/09/04 12:45:22;;;;;;;6.22;1.90;;;;;;;;;;4963417;28;20050;-84
2022/09/04 12:48:08;;;;;;;11.73;2.67;;;;;;;;;;4944251;28;20097;-83
2022/09/04 12:50:52;;;;;;;8.25;2.13;;;;;;;;;;4953314;28;20554;-82
2022/09/04 12:53:25;;;;;;;4.03;1.70;;;;;;;;;;4946112;28;20047;-83
2022/09/04 12:56:04;;;;;;;4.75;1.70;;;;;;;;;;4955906;28;20104;-84
2022/09/04 12:58:46;;;;;;;5.10;1.70;;;;;;;;;;4956721;28;20051;-83
2022/09/04 13:01:22;;;;;;;4.22;1.60;;;;;;;;;;4961887;28;20043;-83
2022/09/04 13:03:48;;;;;;;4.65;1.85;;;;;;;;;;4959438;28;20055;-83
2022/09/04 13:06:32;;;;;;;6.85;1.85;;;;;;;;;;4965914;28;20054;-83
2022/09/04 13:09:17;;;;;;;6.65;1.63;;;;;;;;;;4961289;28;20418;-83
2022/09/04 13:11:43;;;;;;;4.53;1.60;;;;;;;;;;4960096;28;20412;-83
2022/09/04 13:14:28;;;;;;;4.25;1.70;;;;;;;;;;4963001;28;20035;-83
2022/09/04 13:16:54;;;;;;;4.75;1.70;;;;;;;;;;4967225;28;20047;-83
2022/09/04 13:19:34;;;;;;;5.53;1.80;;;;;;;;;;4963208;28;20146;-83
2022/09/04 13:22:19;;;;;;;4.82;1.70;;;;;;;;;;4963344;28;20047;-83
2022/09/04 13:24:50;;;;;;;3.80;1.58;;;;;;;;;;4960192;28;20051;-83
2022/09/04 13:27:25;;;;;;;4.90;1.80;;;;;;;;;;4960771;28;20067;-83
2022/09/04 13:30:10;;;;;;;5.85;2.05;;;;;;;;;;4960284;28;20073;-83
2022/09/04 13:32:39;;;;;;;3.85;1.48;;;;;;;;;;4961168;28;20047;-83
2022/09/04 13:35:12;;;;;;;4.60;1.95;;;;;;;;;;4945064;28;20107;-84
2022/09/04 13:37:44;;;;;;;4.72;2.00;;;;;;;;;;4962134;28;20063;-83
2022/09/04 13:40:15;;;;;;;5.70;1.92;;;;;;;;;;4965197;28;20078;-83
2022/09/04 13:42:41;;;;;;;;;;;;;;;;;;4963282;28;20043;-83
2022/09/04 13:45:22;;;;;;;4.10;1.67;;;;;;;;;;4963331;28;19957;-83
2022/09/04 13:47:54;;;;;;;4.70;1.73;;;;;;;;;;4963408;28;20050;-83
2022/09/04 13:50:35;;;;;;;4.28;1.60;;;;;;;;;;4959928;28;20412;-83
2022/09/04 13:53:11;;;;;;;5.60;1.80;;;;;;;;;;4945130;28;20149;-83
2022/09/04 13:55:38;;;;;;;4.15;1.75;;;;;;;;;;4958620;28;20039;-84
2022/09/04 13:58:18;;;;;;;5.78;1.90;;;;;;;;;;4942958;28;20406;-82
2022/09/04 14:00:48;;;;;;;3.67;1.60;;;;;;;;;;4962872;28;20104;-82
2022/09/04 14:03:25;;;;;;;5.13;1.70;;;;;;;;;;4960702;28;20079;-82
2022/09/04 14:05:51;;;;;;;4.75;1.90;;;;;;;;;;4962784;28;20042;-83
2022/09/04 14:08:19;;;;;;;5.70;1.77;;;;;;;;;;4962269;28;20106;-85
2022/09/04 14:10:54;;;;;;;4.43;1.85;;;;;;;;;;4946619;28;20048;-85
2022/09/04 14:13:27;;;;;;;3.78;1.50;;;;;;;;;;4961780;28;20450;-84
2022/09/04 14:16:01;;;;;;;4.35;1.88;;;;;;;;;;4965032;28;20516;-83
2022/09/04 14:18:38;;;;;;;4.57;1.60;;;;;;;;;;4962563;28;20050;-84
2022/09/04 14:21:23;;;;;;;5.60;1.70;;;;;;;;;;4966002;28;20103;-83
2022/09/04 14:23:51;;;;;;;6.35;1.90;;;;;;;;;;4962719;28;20043;-82
2022/09/04 14:26:29;;;;;;;5.43;1.77;;;;;;;;;;4946832;28;20054;-83
2022/09/04 14:29:02;;;;;;;4.60;1.80;;;;;;;;;;4958422;28;20078;-82
2022/09/04 14:31:35;;;;;;;3.88;1.85;;;;;;;;;;4965605;28;20059;-82
2022/09/04 14:34:16;;;;;;;4.70;1.80;;;;;;;;;;4963202;28;20042;-82
2022/09/04 14:36:48;;;;;;;3.90;1.65;;;;;;;;;;4965646;28;20039;-82
2022/09/04 14:39:35;;;;;;;6.07;1.90;;;;;;;;;;4962480;28;20454;-82
2022/09/04 14:42:11;;;;;;;3.72;1.70;;;;;;;;;;4962170;28;20049;-82
2022/09/04 14:44:37;;;;;;;4.85;1.70;;;;;;;;;;4959667;28;20093;-85
2022/09/04 14:47:06;;;;;;;5.22;1.75;;;;;;;;;;4944266;28;20049;-85
2022/09/04 14:49:38;;;;;;;3.47;1.60;;;;;;;;;;4960168;28;20441;-84
2022/09/04 14:52:10;;;;;;;4.75;1.80;;;;;;;;;;4963862;28;20046;-85
2022/09/04 14:54:42;;;;;;;6.32;1.80;;;;;;;;;;4945860;28;20054;-84
2022/09/04 14:57:11;;;;;;;4.82;1.90;;;;;;;;;;4963392;28;20043;-85
2022/09/04 14:59:42;;;;;;;5.90;1.75;;;;;;;;;;4961654;28;20133;-82
2022/09/04 15:02:08;;;;;;;6.45;1.90;;;;;;;;;;4943411;28;20137;-84
2022/09/04 15:04:46;;;;;;;5.68;1.80;;;;;;;;;;4947263;28;20051;-83
2022/09/04 15:07:23;;;;;;;5.82;1.73;;;;;;;;;;4949960;28;20084;-84
2022/09/04 15:09:50;;;;;;;5.90;1.90;;;;;;;;;;4950200;28;20052;-84
2022/09/04 15:12:21;;;;;;;4.97;1.60;;;;;;;;;;4956597;28;20085;-84
2022/09/04 15:14:50;;;;;;;5.10;1.85;;;;;;;;;;4950193;28;20051;-87
2022/09/04 15:17:25;;;;;;;4.45;1.50;;;;;;;;;;4958749;28;20059;-86
2022/09/04 15:19:57;;;;;;;5.18;1.63;;;;;;;;;;4960692;28;20063;-86
2022/09/04 15:22:45;;;;;;;7.82;2.00;;;;;;;;;;4953594;28;20095;-84
2022/09/04 15:25:11;;;;;;;6.68;2.08;;;;;;;;;;4958547;28;20054;-85
2022/09/04 15:27:43;;;;;;;4.25;1.70;;;;;;;;;;4956601;28;20036;-85
2022/09/04 15:30:20;;;;;;;4.43;1.60;;;;;;;;;;4952379;29;20066;-85
2022/09/04 15:32:47;;;;;;;5.35;1.55;;;;;;;;;;4953719;28;20051;-85
2022/09/04 15:35:19;;;;;;;5.05;1.60;;;;;;;;;;4946140;28;20043;-85
2022/09/04 15:38:06;;;;;;;6.78;1.85;;;;;;;;;;4943918;28;20142;-86
2022/09/04 15:40:59;;;;;;;5.82;1.90;;;;;;;;;;4967067;28;20043;-86